createdAt,value
2019-04-28T00:01:24.856Z,14.00
2019-04-28T00:03:53.580Z,14.00
2019-04-28T00:06:22.386Z,14.00
2019-04-28T00:08:51.752Z,14.00
2019-04-28T00:11:21.736Z,14.00
2019-04-28T00:13:51.852Z,13.90
2019-04-28T00:16:20.998Z,13.90
2019-04-28T00:18:51.686Z,13.90
2019-04-28T00:21:38.015Z,13.90
2019-04-28T00:24:11.497Z,13.90
2019-04-28T00:26:44.528Z,13.90
2019-04-28T00:29:13.090Z,13.90
2019-04-28T00:31:41.752Z,13.90
2019-04-28T00:34:11.474Z,13.90
2019-04-28T00:36:42.595Z,13.80
2019-04-28T00:39:11.208Z,13.90
2019-04-28T00:41:42.025Z,13.80
2019-04-28T00:44:12.049Z,13.80
2019-04-28T00:46:41.844Z,13.90
2019-04-28T00:49:11.859Z,13.80
2019-04-28T00:51:41.494Z,13.80
2019-04-28T00:54:12.166Z,13.80
2019-04-28T00:56:41.766Z,13.80
2019-04-28T00:59:11.781Z,13.80
2019-04-28T01:01:51.498Z,13.80
2019-04-28T01:04:21.856Z,13.70
2019-04-28T01:06:51.996Z,13.70
2019-04-28T01:09:21.780Z,13.70
2019-04-28T01:11:51.134Z,13.70
2019-04-28T01:14:21.324Z,13.70
2019-04-28T01:17:07.691Z,13.70
2019-04-28T01:19:40.504Z,13.70
2019-04-28T01:22:10.857Z,13.70
2019-04-28T01:24:40.463Z,13.70
2019-04-28T01:27:11.038Z,13.70
2019-04-28T01:29:40.301Z,13.70
2019-04-28T01:32:20.304Z,13.70
2019-04-28T01:34:49.842Z,13.70
2019-04-28T01:37:19.626Z,13.70
2019-04-28T01:39:49.627Z,13.70
2019-04-28T01:42:20.396Z,13.70
2019-04-28T01:44:49.491Z,13.70
2019-04-28T01:47:24.263Z,13.70
2019-04-28T01:49:52.897Z,13.70
2019-04-28T01:52:21.459Z,13.70
2019-04-28T01:54:50.298Z,13.70
2019-04-28T01:57:21.359Z,13.70
2019-04-28T01:59:49.998Z,13.60
2019-04-28T02:02:19.920Z,13.60
2019-04-28T02:04:49.914Z,13.60
2019-04-28T02:07:20.469Z,13.60
2019-04-28T02:09:49.501Z,13.60
2019-04-28T02:12:20.182Z,13.60
2019-04-28T02:14:50.285Z,13.60
2019-04-28T02:17:20.254Z,13.60
2019-04-28T02:19:48.993Z,13.50
2019-04-28T02:22:37.257Z,13.50
2019-04-28T02:25:07.305Z,13.50
2019-04-28T02:27:35.963Z,13.50
2019-04-28T02:30:10.961Z,13.50
2019-04-28T02:32:40.732Z,13.50
2019-04-28T02:35:10.645Z,13.50
2019-04-28T02:37:40.550Z,13.50
2019-04-28T02:40:10.811Z,13.60
2019-04-28T02:42:41.031Z,13.50
2019-04-28T02:45:11.619Z,13.50
2019-04-28T02:47:41.939Z,13.50
2019-04-28T02:50:12.632Z,13.50
2019-04-28T02:52:54.706Z,13.40
2019-04-28T02:55:23.698Z,13.40
2019-04-28T02:57:52.356Z,13.40
2019-04-28T03:00:22.044Z,13.40
2019-04-28T03:02:52.621Z,13.40
2019-04-28T03:05:21.876Z,13.40
2019-04-28T03:07:51.459Z,13.40
2019-04-28T03:10:21.357Z,13.40
2019-04-28T03:12:51.595Z,13.30
2019-04-28T03:15:20.717Z,13.30
2019-04-28T03:17:52.462Z,13.30
2019-04-28T03:20:21.255Z,13.30
2019-04-28T03:22:51.064Z,13.30
2019-04-28T03:25:22.486Z,13.30
2019-04-28T03:28:00.608Z,13.30
2019-04-28T03:30:35.827Z,13.30
2019-04-28T03:33:17.010Z,13.30
2019-04-28T03:35:43.475Z,13.30
2019-04-28T03:38:10.753Z,13.20
2019-04-28T03:40:45.057Z,13.20
2019-04-28T03:43:16.704Z,13.20
2019-04-28T03:46:02.828Z,13.20
2019-04-28T03:48:30.913Z,13.30
2019-04-28T03:51:00.641Z,13.20
2019-04-28T03:53:35.261Z,13.10
2019-04-28T03:56:03.973Z,13.10
2019-04-28T03:58:33.503Z,13.10
2019-04-28T04:01:10.717Z,13.10
2019-04-28T04:03:41.635Z,13.20
2019-04-28T04:06:10.525Z,13.20
2019-04-28T04:08:40.813Z,13.20
2019-04-28T04:11:27.205Z,13.20
2019-04-28T04:14:15.354Z,13.20
2019-04-28T04:16:50.275Z,13.20
2019-04-28T04:19:20.438Z,13.20
2019-04-28T04:21:52.297Z,13.20
2019-04-28T04:24:20.567Z,13.10
2019-04-28T04:26:50.557Z,13.10
2019-04-28T04:29:21.643Z,13.10
2019-04-28T04:31:51.188Z,13.10
2019-04-28T04:34:20.247Z,13.10
2019-04-28T04:36:50.890Z,13.10
2019-04-28T04:39:20.626Z,13.10
2019-04-28T04:41:50.390Z,13.10
2019-04-28T04:44:21.043Z,13.10
2019-04-28T04:46:50.905Z,13.10
2019-04-28T04:49:21.565Z,13.10
2019-04-28T04:51:50.908Z,13.20
2019-04-28T04:54:20.653Z,13.20
2019-04-28T04:56:50.070Z,13.20
2019-04-28T04:59:20.234Z,13.20
2019-04-28T05:01:53.543Z,13.20
2019-04-28T05:04:39.960Z,13.20
2019-04-28T05:07:08.580Z,13.30
2019-04-28T05:09:37.164Z,13.30
2019-04-28T05:12:05.717Z,13.30
2019-04-28T05:14:34.308Z,13.30
2019-04-28T05:17:02.896Z,13.30
2019-04-28T05:19:31.453Z,13.40
2019-04-28T05:22:00.194Z,13.40
2019-04-28T05:24:33.406Z,13.40
2019-04-28T05:27:01.998Z,13.50
2019-04-28T05:29:30.772Z,13.50
2019-04-28T05:32:03.160Z,13.50
2019-04-28T05:34:29.808Z,13.40
2019-04-28T05:36:58.369Z,13.60
2019-04-28T05:39:26.938Z,13.60
2019-04-28T05:41:55.533Z,13.70
2019-04-28T05:44:24.408Z,13.70
2019-04-28T05:46:52.993Z,13.70
2019-04-28T05:49:23.187Z,13.80
2019-04-28T05:51:53.459Z,13.80
2019-04-28T05:54:26.407Z,13.70
2019-04-28T05:57:02.564Z,13.80
2019-04-28T05:59:41.948Z,13.80
2019-04-28T06:02:12.398Z,13.80
2019-04-28T06:04:40.946Z,13.90
2019-04-28T06:07:16.678Z,14.00
2019-04-28T06:09:50.108Z,13.70
2019-04-28T06:12:20.107Z,14.00
2019-04-28T06:14:50.198Z,14.00
2019-04-28T06:17:20.845Z,14.10
2019-04-28T06:19:50.385Z,14.10
2019-04-28T06:22:20.109Z,13.90
2019-04-28T06:24:48.676Z,14.10
2019-04-28T06:27:17.308Z,14.10
2019-04-28T06:29:45.880Z,14.10
2019-04-28T06:32:14.482Z,14.10
2019-04-28T06:34:43.045Z,14.20
2019-04-28T06:37:11.682Z,14.20
2019-04-28T06:39:40.270Z,14.20
2019-04-28T06:42:09.112Z,14.20
2019-04-28T06:44:37.732Z,14.30
2019-04-28T06:47:06.278Z,14.40
2019-04-28T06:49:34.863Z,14.50
2019-04-28T06:52:03.437Z,14.60
2019-04-28T06:54:32.139Z,14.80
2019-04-28T06:57:00.713Z,14.80
2019-04-28T06:59:29.272Z,14.80
2019-04-28T07:01:57.946Z,14.80
2019-04-28T07:04:26.507Z,14.90
2019-04-28T07:06:55.076Z,14.90
2019-04-28T07:09:23.733Z,14.90
2019-04-28T07:11:52.312Z,14.90
2019-04-28T07:14:20.909Z,14.90
2019-04-28T07:16:49.540Z,14.90
2019-04-28T07:19:18.108Z,14.80
2019-04-28T07:21:49.277Z,14.80
2019-04-28T07:24:17.855Z,14.80
2019-04-28T07:26:46.492Z,14.80
2019-04-28T07:29:15.236Z,14.70
2019-04-28T07:31:43.946Z,14.60
2019-04-28T07:34:12.583Z,14.50
2019-04-28T07:36:41.186Z,14.50
2019-04-28T07:39:09.908Z,14.50
2019-04-28T07:41:38.783Z,14.50
2019-04-28T07:44:07.485Z,14.50
2019-04-28T07:46:36.046Z,14.50
2019-04-28T07:49:04.742Z,14.60
2019-04-28T07:51:37.761Z,14.70
2019-04-28T07:54:09.005Z,14.70
2019-04-28T07:56:37.684Z,14.80
2019-04-28T07:59:06.311Z,14.80
2019-04-28T08:01:35.938Z,14.90
2019-04-28T08:04:04.548Z,15.00
2019-04-28T08:06:33.165Z,15.10
2019-04-28T08:09:02.486Z,15.10
2019-04-28T08:11:31.100Z,15.20
2019-04-28T08:13:59.692Z,15.10
2019-04-28T08:16:28.389Z,15.10
2019-04-28T08:18:56.967Z,15.00
2019-04-28T08:21:25.597Z,15.10
2019-04-28T08:23:54.220Z,15.10
2019-04-28T08:26:22.866Z,15.20
2019-04-28T08:28:51.440Z,15.10
2019-04-28T08:31:21.663Z,15.20
2019-04-28T08:34:02.203Z,15.20
2019-04-28T08:36:25.003Z,15.20
2019-04-28T08:38:53.558Z,15.30
2019-04-28T08:41:22.206Z,15.30
2019-04-28T08:43:50.776Z,15.40
2019-04-28T08:46:19.426Z,15.50
2019-04-28T08:48:48.082Z,15.50
2019-04-28T08:51:16.671Z,15.60
2019-04-28T08:53:45.278Z,15.60
2019-04-28T08:56:13.862Z,15.70
2019-04-28T08:58:42.448Z,15.70
2019-04-28T09:01:11.120Z,15.80
2019-04-28T09:03:39.706Z,15.70
2019-04-28T09:06:08.276Z,15.60
2019-04-28T09:08:36.844Z,15.50
2019-04-28T09:11:05.627Z,15.40
2019-04-28T09:13:37.499Z,15.40
2019-04-28T09:16:05.822Z,15.40
2019-04-28T09:18:34.433Z,15.30
2019-04-28T09:21:04.082Z,15.20
2019-04-28T09:23:32.656Z,15.10
2019-04-28T09:26:01.268Z,15.10
2019-04-28T09:28:29.860Z,15.00
2019-04-28T09:30:58.494Z,15.00
2019-04-28T09:33:27.070Z,14.90
2019-04-28T09:35:55.656Z,14.90
2019-04-28T09:38:24.723Z,14.80
2019-04-28T09:40:53.290Z,14.80
2019-04-28T09:43:26.206Z,14.70
2019-04-28T09:45:56.414Z,14.70
2019-04-28T09:48:24.997Z,14.70
2019-04-28T09:50:53.591Z,14.70
2019-04-28T09:53:22.166Z,14.70
2019-04-28T09:55:50.730Z,14.60
2019-04-28T09:58:19.334Z,14.50
2019-04-28T10:00:47.904Z,14.50
2019-04-28T10:03:16.522Z,14.50
2019-04-28T10:05:45.476Z,14.40
2019-04-28T10:08:15.083Z,14.40
2019-04-28T10:10:44.883Z,14.30
2019-04-28T10:13:13.404Z,14.30
2019-04-28T10:15:42.230Z,14.30
2019-04-28T10:18:10.791Z,14.20
2019-04-28T10:20:39.564Z,14.20
2019-04-28T10:23:08.172Z,14.30
2019-04-28T10:25:37.067Z,14.30
2019-04-28T10:28:05.618Z,14.30
2019-04-28T10:30:34.244Z,14.30
2019-04-28T10:33:03.145Z,14.40
2019-04-28T10:35:31.846Z,14.40
2019-04-28T10:38:00.430Z,14.40
2019-04-28T10:40:44.580Z,14.40
2019-04-28T10:43:13.209Z,14.40
2019-04-28T10:45:46.376Z,14.40
2019-04-28T10:48:15.016Z,14.40
2019-04-28T10:50:43.746Z,14.40
2019-04-28T10:53:13.591Z,14.40
2019-04-28T10:55:42.217Z,14.50
2019-04-28T10:58:10.810Z,14.50
2019-04-28T11:00:42.938Z,14.50
2019-04-28T11:03:11.504Z,14.50
2019-04-28T11:05:44.736Z,14.60
2019-04-28T11:08:21.376Z,14.60
2019-04-28T11:10:49.942Z,14.60
2019-04-28T11:13:18.649Z,14.60
2019-04-28T11:15:47.394Z,14.50
2019-04-28T11:18:16.274Z,14.50
2019-04-28T11:20:44.932Z,14.50
2019-04-28T11:23:13.695Z,14.50
2019-04-28T11:25:42.255Z,14.50
2019-04-28T11:28:10.937Z,14.60
2019-04-28T11:30:39.593Z,14.60
2019-04-28T11:33:28.080Z,14.70
2019-04-28T11:35:56.836Z,14.60
2019-04-28T11:38:25.552Z,14.50
2019-04-28T11:40:54.189Z,14.50
2019-04-28T11:43:22.821Z,14.40
2019-04-28T11:45:52.440Z,14.40
2019-04-28T11:48:21.028Z,14.30
2019-04-28T11:50:49.594Z,14.30
2019-04-28T11:53:18.183Z,14.30
2019-04-28T11:55:46.906Z,14.30
2019-04-28T11:58:15.468Z,14.30
2019-04-28T12:00:44.256Z,14.30
2019-04-28T12:03:12.968Z,14.20
2019-04-28T12:05:43.165Z,14.20
2019-04-28T12:08:11.760Z,14.30
2019-04-28T12:11:00.028Z,14.20
2019-04-28T12:13:30.260Z,14.20
2019-04-28T12:16:16.566Z,14.20
2019-04-28T12:18:46.936Z,14.20
2019-04-28T12:21:15.603Z,14.20
2019-04-28T12:23:44.249Z,14.20
2019-04-28T12:26:13.138Z,14.20
2019-04-28T12:28:41.738Z,14.20
2019-04-28T12:31:10.310Z,14.10
2019-04-28T12:33:40.174Z,14.20
2019-04-28T12:36:09.333Z,14.20
2019-04-28T12:38:37.919Z,14.20
2019-04-28T12:41:06.545Z,14.10
2019-04-28T12:43:35.577Z,14.00
2019-04-28T12:46:04.293Z,13.90
2019-04-28T12:48:33.183Z,13.90
2019-04-28T12:51:01.812Z,13.90
2019-04-28T12:53:30.402Z,13.90
2019-04-28T12:55:58.997Z,14.00
2019-04-28T12:58:27.567Z,14.00
2019-04-28T13:01:06.672Z,13.90
2019-04-28T13:03:51.996Z,13.90
2019-04-28T13:06:23.212Z,13.90
2019-04-28T13:08:51.800Z,13.90
2019-04-28T13:11:20.352Z,13.90
2019-04-28T13:13:48.947Z,13.90
2019-04-28T13:16:17.514Z,13.80
2019-04-28T13:18:46.096Z,13.90
2019-04-28T13:21:15.150Z,13.90
2019-04-28T13:23:43.720Z,13.90
2019-04-28T13:26:12.293Z,13.90
2019-04-28T13:28:40.867Z,13.90
2019-04-28T13:31:09.441Z,14.00
2019-04-28T13:33:38.050Z,14.00
2019-04-28T13:36:14.724Z,13.90
2019-04-28T13:38:36.996Z,13.90
2019-04-28T13:41:05.581Z,13.90
2019-04-28T13:43:34.262Z,13.80
2019-04-28T13:46:02.916Z,13.80
2019-04-28T13:48:31.486Z,13.80
2019-04-28T13:51:00.174Z,13.80
2019-04-28T13:53:28.784Z,13.80
2019-04-28T13:55:58.985Z,13.80
2019-04-28T13:58:32.200Z,13.80
2019-04-28T14:01:18.730Z,13.90
2019-04-28T14:03:48.984Z,13.90
2019-04-28T14:06:28.462Z,13.90
2019-04-28T14:08:55.159Z,13.90
2019-04-28T14:11:24.141Z,13.80
2019-04-28T14:13:52.852Z,13.80
2019-04-28T14:16:21.518Z,13.80
2019-04-28T14:18:50.216Z,13.80
2019-04-28T14:21:18.738Z,13.80
2019-04-28T14:23:47.328Z,13.70
2019-04-28T14:26:16.014Z,13.60
2019-04-28T14:28:44.626Z,13.60
2019-04-28T14:31:13.335Z,13.60
2019-04-28T14:33:41.861Z,13.60
2019-04-28T14:36:10.444Z,13.60
2019-04-28T14:38:39.002Z,13.60
2019-04-28T14:41:07.616Z,13.50
2019-04-28T14:43:36.251Z,13.50
2019-04-28T14:46:04.901Z,13.50
2019-04-28T14:48:33.585Z,13.50
2019-04-28T14:51:02.186Z,13.50
2019-04-28T14:53:31.117Z,13.50
2019-04-28T14:55:59.648Z,13.50
2019-04-28T14:58:28.242Z,13.50
2019-04-28T15:00:58.551Z,13.50
2019-04-28T15:03:28.751Z,13.50
2019-04-28T15:06:01.957Z,13.50
2019-04-28T15:08:38.216Z,13.60
2019-04-28T15:11:08.496Z,13.50
2019-04-28T15:13:37.463Z,13.50
2019-04-28T15:16:06.085Z,13.50
2019-04-28T15:18:34.701Z,13.60
2019-04-28T15:21:05.334Z,13.60
2019-04-28T15:23:33.947Z,13.60
2019-04-28T15:26:02.472Z,13.70
2019-04-28T15:28:31.060Z,13.70
2019-04-28T15:30:59.844Z,13.60
2019-04-28T15:33:29.332Z,13.70
2019-04-28T15:35:57.966Z,13.70
2019-04-28T15:38:26.554Z,13.70
2019-04-28T15:40:55.298Z,13.70
2019-04-28T15:43:25.136Z,13.70
2019-04-28T15:45:53.757Z,13.70
2019-04-28T15:48:22.322Z,13.70
2019-04-28T15:50:50.956Z,13.70
2019-04-28T15:53:19.584Z,13.70
2019-04-28T16:09:14.964Z,13.70
2019-04-28T16:11:43.671Z,13.70
2019-04-28T16:14:12.279Z,13.60
2019-04-28T16:16:40.869Z,13.60
2019-04-28T16:19:09.443Z,13.60
2019-04-28T16:21:38.196Z,13.50
2019-04-28T16:24:06.836Z,13.50
2019-04-28T16:26:36.397Z,13.50
2019-04-28T16:29:05.407Z,13.50
2019-04-28T16:31:37.664Z,13.50
2019-04-28T16:34:05.837Z,13.50
2019-04-28T16:36:34.492Z,13.50
2019-04-28T16:39:04.703Z,13.50
2019-04-28T16:41:33.761Z,13.50
2019-04-28T16:44:02.577Z,13.50
2019-04-28T16:46:31.235Z,13.50
2019-04-28T16:48:59.787Z,13.50
2019-04-28T16:51:29.372Z,13.50
2019-04-28T16:53:59.030Z,13.50
2019-04-28T16:56:44.455Z,13.50
2019-04-28T16:59:31.076Z,13.50
2019-04-28T17:02:02.238Z,13.50
2019-04-28T17:04:31.000Z,13.50
2019-04-28T17:06:59.620Z,13.40
2019-04-28T17:09:29.120Z,13.40
2019-04-28T17:11:57.719Z,13.40
2019-04-28T17:17:03.603Z,13.40
2019-04-28T17:19:32.191Z,13.40
2019-04-28T17:22:00.781Z,13.40
2019-04-28T17:24:29.420Z,13.40
2019-04-28T17:26:58.087Z,13.40
2019-04-28T17:29:26.694Z,13.40
2019-04-28T17:31:55.412Z,13.40
2019-04-28T17:34:23.980Z,13.40
2019-04-28T17:36:52.671Z,13.30
2019-04-28T17:39:23.644Z,13.30
2019-04-28T17:41:52.349Z,13.30
2019-04-28T17:44:20.957Z,13.20
2019-04-28T17:46:49.606Z,13.20
2019-04-28T17:49:19.900Z,13.20
2019-04-28T17:51:48.518Z,13.20
2019-04-28T17:54:17.091Z,13.20
2019-04-28T17:56:45.866Z,12.90
2019-04-28T17:59:14.488Z,13.20
2019-04-28T18:02:00.813Z,13.20
2019-04-28T18:04:34.126Z,13.20
2019-04-28T18:07:04.438Z,13.20
2019-04-28T18:09:32.996Z,13.20
2019-04-28T18:12:01.666Z,13.20
2019-04-28T18:14:30.257Z,13.20
2019-04-28T18:17:03.233Z,13.20
2019-04-28T18:19:32.172Z,13.20
2019-04-28T18:22:00.817Z,13.20
2019-04-28T18:24:29.489Z,13.20
2019-04-28T18:26:58.192Z,13.20
2019-04-28T18:29:27.094Z,13.20
2019-04-28T18:32:13.405Z,13.20
2019-04-28T18:34:46.688Z,13.20
2019-04-28T18:37:33.289Z,13.10
2019-04-28T18:40:03.498Z,13.20
2019-04-28T18:42:34.094Z,13.20
2019-04-28T18:45:02.748Z,13.20
2019-04-28T18:47:31.336Z,13.20
2019-04-28T18:49:59.928Z,13.20
2019-04-28T18:52:28.544Z,13.20
2019-04-28T18:54:57.180Z,13.20
2019-04-28T18:57:25.765Z,13.20
2019-04-28T18:59:54.706Z,13.30
2019-04-28T19:02:24.994Z,13.20
2019-04-28T19:04:53.569Z,13.20
2019-04-28T19:07:29.791Z,13.20
2019-04-28T19:10:01.061Z,13.20
2019-04-28T19:12:43.208Z,13.20
2019-04-28T19:15:29.410Z,13.20
2019-04-28T19:18:02.748Z,13.20
2019-04-28T19:20:31.331Z,13.20
2019-04-28T19:23:00.935Z,13.20
2019-04-28T19:25:29.498Z,13.20
2019-04-28T19:27:58.196Z,13.20
2019-04-28T19:30:26.872Z,13.20
2019-04-28T19:32:55.437Z,13.10
2019-04-28T19:35:25.074Z,13.10
2019-04-28T19:37:53.724Z,13.10
2019-04-28T19:40:24.408Z,13.10
2019-04-28T19:42:53.095Z,13.10
2019-04-28T19:45:22.159Z,13.00
2019-04-28T19:47:50.794Z,13.00
2019-04-28T19:50:19.385Z,13.00
2019-04-28T19:52:48.136Z,13.00
2019-04-28T19:55:24.210Z,13.00
2019-04-28T19:58:00.551Z,13.00
2019-04-28T20:00:36.508Z,13.00
2019-04-28T20:03:05.648Z,13.00
2019-04-28T20:05:35.172Z,13.00
2019-04-28T20:08:03.784Z,13.00
2019-04-28T20:10:32.518Z,13.00
2019-04-28T20:13:02.554Z,13.00
2019-04-28T20:15:31.180Z,13.00
2019-04-28T20:17:59.784Z,13.00
2019-04-28T20:20:28.393Z,13.00
2019-04-28T20:22:56.955Z,13.00
2019-04-28T20:25:25.515Z,13.00
2019-04-28T20:27:54.098Z,13.10
2019-04-28T20:30:22.687Z,13.00
2019-04-28T20:32:51.261Z,13.00
2019-04-28T20:35:30.257Z,13.00
2019-04-28T20:38:00.513Z,13.00
2019-04-28T20:40:33.580Z,13.00
2019-04-28T20:43:04.398Z,13.00
2019-04-28T20:45:33.070Z,13.00
2019-04-28T20:48:01.615Z,13.00
2019-04-28T20:50:30.231Z,13.00
2019-04-28T20:52:58.799Z,13.10
2019-04-28T20:55:27.373Z,13.10
2019-04-28T20:57:56.989Z,13.10
2019-04-28T21:00:25.637Z,13.10
2019-04-28T21:02:54.199Z,13.10
2019-04-28T21:05:22.787Z,13.10
2019-04-28T21:07:51.364Z,13.10
2019-04-28T21:10:19.991Z,13.10
2019-04-28T21:12:48.549Z,13.10
2019-04-28T21:15:17.338Z,13.10
2019-04-28T21:17:45.999Z,13.10
2019-04-28T21:20:14.709Z,13.10
2019-04-28T21:22:44.517Z,13.10
2019-04-28T21:25:13.196Z,13.10
2019-04-28T21:27:41.763Z,13.00
2019-04-28T21:30:10.879Z,13.00
2019-04-28T21:32:39.472Z,13.00
2019-04-28T21:35:08.163Z,13.00
2019-04-28T21:37:36.839Z,13.00
2019-04-28T21:40:06.881Z,13.00
2019-04-28T21:42:53.049Z,13.00
2019-04-28T21:45:39.360Z,13.00
2019-04-28T21:48:08.149Z,13.00
2019-04-28T21:50:36.712Z,13.00
2019-04-28T21:53:06.270Z,13.10
2019-04-28T21:55:34.839Z,13.10
2019-04-28T21:58:03.889Z,13.10
2019-04-28T22:00:43.046Z,13.10
2019-04-28T22:03:11.707Z,13.10
2019-04-28T22:05:40.279Z,13.10
2019-04-28T22:08:08.885Z,13.10
2019-04-28T22:10:39.352Z,13.10
2019-04-28T22:13:08.851Z,13.20
2019-04-28T22:15:41.028Z,13.10
2019-04-28T22:18:09.808Z,13.10
2019-04-28T22:20:38.383Z,13.10
2019-04-28T22:23:20.435Z,13.20
2019-04-28T22:25:49.031Z,13.10
2019-04-28T22:28:18.608Z,13.10
2019-04-28T22:30:47.183Z,13.10
2019-04-28T22:33:16.777Z,13.10
2019-04-28T22:35:45.391Z,13.10
2019-04-28T22:38:13.953Z,13.10
2019-04-28T22:40:42.603Z,13.20
2019-04-28T22:43:11.191Z,13.20
2019-04-28T22:45:40.683Z,13.20
2019-04-28T22:48:11.015Z,13.20
2019-04-28T22:50:42.228Z,13.10
2019-04-28T22:53:11.077Z,13.20
2019-04-28T22:55:41.324Z,13.20
2019-04-28T22:58:11.603Z,13.20
2019-04-28T23:00:41.994Z,13.20
2019-04-28T23:03:25.351Z,13.20
2019-04-28T23:05:54.050Z,13.20
2019-04-28T23:08:22.759Z,13.20
2019-04-28T23:10:51.345Z,13.20
2019-04-28T23:13:20.016Z,13.20
2019-04-28T23:15:48.734Z,13.20
2019-04-28T23:18:17.695Z,13.30
2019-04-28T23:20:49.989Z,13.30
2019-04-28T23:23:18.570Z,13.20
2019-04-28T23:25:47.128Z,13.30
2019-04-28T23:28:15.728Z,13.20
2019-04-28T23:30:46.570Z,13.20
2019-04-28T23:33:16.186Z,13.20
2019-04-28T23:35:44.824Z,13.20
2019-04-28T23:38:14.436Z,13.20
2019-04-28T23:40:45.988Z,13.20
2019-04-28T23:43:16.214Z,13.20
2019-04-28T23:45:45.271Z,13.20
2019-04-28T23:48:13.878Z,13.20
2019-04-28T23:50:44.078Z,13.20
2019-04-28T23:53:14.330Z,13.20
2019-04-28T23:55:42.903Z,13.20
2019-04-28T23:58:11.880Z,13.20
